sensor_id;sensor_type;location;lat;lon;timestamp;pressure;altitude;pressure_sealevel;temperature;humidity
73422;BME280;61637;47.760;-122.022;2022-07-23T00:00:00;101930.339;;;23.7;35.6
73422;BME280;61637;47.760;-122.022;2022-07-23T00:02:00;101930.339;;;23.7;35.6
73422;BME280;61637;47.760;-122.022;2022-07-23T00:04:00;101930.339;;;23.7;35.6
73422;BME280;61637;47.760;-122.022;2022-07-23T00:06:00;101930.339;;;23.6;35.6
73422;BME280;61637;47.760;-122.022;2022-07-23T00:08:00;101930.339;;;23.6;35.6
73422;BME280;61637;47.760;-122.022;2022-07-23T00:10:00;101930.339;;;23.5;35.6
73422;BME280;61637;47.760;-122.022;2022-07-23T00:12:00;101930.339;;;23.5;35.6
73422;BME280;61637;47.760;-122.022;2022-07-23T00:14:00;101930.339;;;23.6;35.6
73422;BME280;61637;47.760;-122.022;2022-07-23T00:16:00;101930.339;;;23.6;35.6
73422;BME280;61637;47.760;-122.022;2022-07-23T00:18:00;101930.339;;;23.7;35.6
73422;BME280;61637;47.760;-122.022;2022-07-23T00:20:00;101930.339;;;23.8;35.6
73422;BME280;61637;47.760;-122.022;2022-07-23T00:22:00;101930.339;;;24.0;35.6
73422;BME280;61637;47.760;-122.022;2022-07-23T00:24:00;101930.339;;;24.3;35.6
73422;BME280;61637;47.760;-122.022;2022-07-23T00:26:00;101930.339;;;24.6;35.6
73422;BME280;61637;47.760;-122.022;2022-07-23T00:28:01;101930.339;;;24.8;35.6
73422;BME280;61637;47.760;-122.022;2022-07-23T00:30:00;101930.339;;;25.1;35.6
73422;BME280;61637;47.760;-122.022;2022-07-23T00:32:00;101930.339;;;25.3;35.6
73422;BME280;61637;47.760;-122.022;2022-07-23T00:34:00;101930.339;;;25.3;35.6
73422;BME280;61637;47.760;-122.022;2022-07-23T00:36:00;101930.339;;;25.4;35.6
73422;BME280;61637;47.760;-122.022;2022-07-23T00:38:01;101930.339;;;25.6;35.6
73422;BME280;61637;47.760;-122.022;2022-07-23T00:40:00;101930.339;;;25.7;35.6
73422;BME280;61637;47.760;-122.022;2022-07-23T00:42:00;101930.339;;;25.7;35.6
73422;BME280;61637;47.760;-122.022;2022-07-23T00:46:00;101930.339;;;25.7;35.6
73422;BME280;61637;47.760;-122.022;2022-07-23T00:48:01;101930.339;;;25.7;35.6
73422;BME280;61637;47.760;-122.022;2022-07-23T00:50:01;101930.339;;;25.4;34.9
73422;BME280;61637;47.760;-122.022;2022-07-23T00:52:01;101930.339;;;25.3;37.2
73422;BME280;61637;47.760;-122.022;2022-07-23T00:54:00;101930.339;;;25.4;34.9
73422;BME280;61637;47.760;-122.022;2022-07-23T00:56:00;101930.339;;;25.5;36.7
73422;BME280;61637;47.760;-122.022;2022-07-23T00:58:00;101930.339;;;25.6;34.0
73422;BME280;61637;47.760;-122.022;2022-07-23T01:00:00;101930.339;;;25.6;34.4
73422;BME280;61637;47.760;-122.022;2022-07-23T01:02:00;101930.339;;;25.6;34.0
73422;BME280;61637;47.760;-122.022;2022-07-23T01:04:00;101930.339;;;25.6;34.5
73422;BME280;61637;47.760;-122.022;2022-07-23T01:06:00;101930.339;;;25.4;37.2
73422;BME280;61637;47.760;-122.022;2022-07-23T01:08:00;101930.339;;;25.2;37.1
73422;BME280;61637;47.760;-122.022;2022-07-23T01:10:00;101930.339;;;25.1;36.6
73422;BME280;61637;47.760;-122.022;2022-07-23T01:12:01;101930.339;;;25.0;35.4
73422;BME280;61637;47.760;-122.022;2022-07-23T01:14:07;101930.339;;;24.9;34.5
73422;BME280;61637;47.760;-122.022;2022-07-23T01:16:00;101930.339;;;24.9;34.0
73422;BME280;61637;47.760;-122.022;2022-07-23T01:18:01;101930.339;;;25.1;35.8
73422;BME280;61637;47.760;-122.022;2022-07-23T01:20:00;101930.339;;;25.2;34.7
73422;BME280;61637;47.760;-122.022;2022-07-23T01:22:01;101930.339;;;25.4;34.4
73422;BME280;61637;47.760;-122.022;2022-07-23T01:24:00;101930.339;;;25.5;34.1
73422;BME280;61637;47.760;-122.022;2022-07-23T01:26:00;101930.339;;;25.6;34.5
73422;BME280;61637;47.760;-122.022;2022-07-23T01:28:00;101930.339;;;25.7;33.6
73422;BME280;61637;47.760;-122.022;2022-07-23T01:30:00;101930.339;;;25.8;33.4
73422;BME280;61637;47.760;-122.022;2022-07-23T01:32:00;101930.339;;;25.8;33.9
73422;BME280;61637;47.760;-122.022;2022-07-23T01:34:00;101930.339;;;25.7;33.1
73422;BME280;61637;47.760;-122.022;2022-07-23T01:36:00;101930.339;;;25.7;32.6
73422;BME280;61637;47.760;-122.022;2022-07-23T01:38:00;101930.339;;;25.6;32.7
73422;BME280;61637;47.760;-122.022;2022-07-23T01:40:00;101930.339;;;25.4;34.8
73422;BME280;61637;47.760;-122.022;2022-07-23T01:42:00;101930.339;;;25.1;35.8
73422;BME280;61637;47.760;-122.022;2022-07-23T01:44:00;101930.339;;;24.8;34.3
73422;BME280;61637;47.760;-122.022;2022-07-23T01:46:00;101930.339;;;24.5;35.1
73422;BME280;61637;47.760;-122.022;2022-07-23T01:48:00;101930.339;;;24.2;34.1
73422;BME280;61637;47.760;-122.022;2022-07-23T01:50:00;101930.339;;;24.1;32.7
73422;BME280;61637;47.760;-122.022;2022-07-23T01:52:00;101930.339;;;24.0;32.5
73422;BME280;61637;47.760;-122.022;2022-07-23T01:54:00;101930.339;;;24.2;32.4
73422;BME280;61637;47.760;-122.022;2022-07-23T01:56:00;101930.339;;;24.3;34.2
73422;BME280;61637;47.760;-122.022;2022-07-23T01:58:00;101930.339;;;24.3;35.2
73422;BME280;61637;47.760;-122.022;2022-07-23T02:00:00;101930.339;;;24.3;34.6
73422;BME280;61637;47.760;-122.022;2022-07-23T02:02:00;101930.339;;;24.4;32.7
73422;BME280;61637;47.760;-122.022;2022-07-23T02:04:00;101930.339;;;24.4;33.0
73422;BME280;61637;47.760;-122.022;2022-07-23T02:06:00;101930.339;;;24.4;33.0
73422;BME280;61637;47.760;-122.022;2022-07-23T02:08:00;101930.339;;;24.4;32.1
73422;BME280;61637;47.760;-122.022;2022-07-23T02:10:00;101930.339;;;24.4;31.8
73422;BME280;61637;47.760;-122.022;2022-07-23T02:12:00;101930.339;;;24.4;34.7
73422;BME280;61637;47.760;-122.022;2022-07-23T02:14:00;101930.339;;;24.3;35.4
73422;BME280;61637;47.760;-122.022;2022-07-23T02:16:00;101930.339;;;24.2;35.3
73422;BME280;61637;47.760;-122.022;2022-07-23T02:18:00;101930.339;;;24.2;34.1
73422;BME280;61637;47.760;-122.022;2022-07-23T02:20:00;101930.339;;;24.2;34.7
73422;BME280;61637;47.760;-122.022;2022-07-23T02:22:00;101930.339;;;24.2;35.4
73422;BME280;61637;47.760;-122.022;2022-07-23T02:24:01;101930.339;;;24.2;33.5
73422;BME280;61637;47.760;-122.022;2022-07-23T02:26:00;101930.339;;;24.1;34.8
73422;BME280;61637;47.760;-122.022;2022-07-23T02:28:00;101930.339;;;24.1;35.2
73422;BME280;61637;47.760;-122.022;2022-07-23T02:30:00;101930.339;;;24.1;35.9
73422;BME280;61637;47.760;-122.022;2022-07-23T02:32:00;101930.339;;;23.9;36.0
73422;BME280;61637;47.760;-122.022;2022-07-23T02:34:00;101930.339;;;23.7;37.1
73422;BME280;61637;47.760;-122.022;2022-07-23T02:36:00;101930.339;;;23.5;36.8
73422;BME280;61637;47.760;-122.022;2022-07-23T02:38:00;101930.339;;;23.3;37.8
73422;BME280;61637;47.760;-122.022;2022-07-23T02:40:00;101930.339;;;23.1;37.0
73422;BME280;61637;47.760;-122.022;2022-07-23T02:42:00;101930.339;;;22.8;35.7
73422;BME280;61637;47.760;-122.022;2022-07-23T02:44:00;101930.339;;;22.7;37.9
73422;BME280;61637;47.760;-122.022;2022-07-23T02:46:01;101930.339;;;22.5;37.1
73422;BME280;61637;47.760;-122.022;2022-07-23T02:48:00;101930.339;;;22.3;38.6
73422;BME280;61637;47.760;-122.022;2022-07-23T02:50:00;101930.339;;;22.2;38.3
73422;BME280;61637;47.760;-122.022;2022-07-23T02:52:00;101930.339;;;22.1;39.3
73422;BME280;61637;47.760;-122.022;2022-07-23T02:54:00;101930.339;;;21.9;37.9
73422;BME280;61637;47.760;-122.022;2022-07-23T02:56:00;101930.339;;;21.8;38.6
73422;BME280;61637;47.760;-122.022;2022-07-23T02:58:00;101930.339;;;21.7;38.3
73422;BME280;61637;47.760;-122.022;2022-07-23T03:00:00;101930.339;;;21.6;39.2
73422;BME280;61637;47.760;-122.022;2022-07-23T03:02:00;101930.339;;;21.4;38.3
73422;BME280;61637;47.760;-122.022;2022-07-23T03:04:00;101930.339;;;21.3;39.3
73422;BME280;61637;47.760;-122.022;2022-07-23T03:06:00;101930.339;;;21.3;38.5
73422;BME280;61637;47.760;-122.022;2022-07-23T03:08:00;101930.339;;;21.2;38.9
73422;BME280;61637;47.760;-122.022;2022-07-23T03:10:00;101930.339;;;21.1;39.7
73422;BME280;61637;47.760;-122.022;2022-07-23T03:12:00;101930.339;;;21.0;40.4
73422;BME280;61637;47.760;-122.022;2022-07-23T03:14:00;101930.339;;;20.8;42.3
73422;BME280;61637;47.760;-122.022;2022-07-23T03:16:01;101930.339;;;20.7;42.4
73422;BME280;61637;47.760;-122.022;2022-07-23T03:18:00;101930.339;;;20.7;41.0
73422;BME280;61637;47.760;-122.022;2022-07-23T03:20:00;101930.339;;;20.6;41.7
73422;BME280;61637;47.760;-122.022;2022-07-23T03:22:00;101930.339;;;20.4;43.2
73422;BME280;61637;47.760;-122.022;2022-07-23T03:24:00;101930.339;;;20.3;45.1
73422;BME280;61637;47.760;-122.022;2022-07-23T03:26:00;101930.339;;;20.2;44.6
73422;BME280;61637;47.760;-122.022;2022-07-23T03:28:00;101930.339;;;20.1;45.8
73422;BME280;61637;47.760;-122.022;2022-07-23T03:30:00;101930.339;;;20.1;44.9
73422;BME280;61637;47.760;-122.022;2022-07-23T03:32:00;101930.339;;;19.9;42.9
73422;BME280;61637;47.760;-122.022;2022-07-23T03:34:00;101930.339;;;19.8;43.3
73422;BME280;61637;47.760;-122.022;2022-07-23T03:36:00;101930.339;;;19.8;42.1
73422;BME280;61637;47.760;-122.022;2022-07-23T03:38:00;101930.339;;;19.7;42.7
73422;BME280;61637;47.760;-122.022;2022-07-23T03:40:00;101930.339;;;19.6;42.2
73422;BME280;61637;47.760;-122.022;2022-07-23T03:42:00;101930.339;;;19.5;43.8
73422;BME280;61637;47.760;-122.022;2022-07-23T03:44:00;101930.339;;;19.4;43.8
73422;BME280;61637;47.760;-122.022;2022-07-23T03:46:00;101930.339;;;19.3;44.5
73422;BME280;61637;47.760;-122.022;2022-07-23T03:48:00;101930.339;;;19.3;44.1
73422;BME280;61637;47.760;-122.022;2022-07-23T03:50:00;101930.339;;;19.2;44.8
73422;BME280;61637;47.760;-122.022;2022-07-23T03:52:00;101930.339;;;19.1;45.0
73422;BME280;61637;47.760;-122.022;2022-07-23T03:54:00;101930.339;;;19.1;44.6
73422;BME280;61637;47.760;-122.022;2022-07-23T03:56:00;101930.339;;;18.9;45.0
73422;BME280;61637;47.760;-122.022;2022-07-23T03:58:00;101930.339;;;18.8;45.0
73422;BME280;61637;47.760;-122.022;2022-07-23T04:00:00;101930.339;;;18.8;45.2
73422;BME280;61637;47.760;-122.022;2022-07-23T04:02:00;101930.339;;;18.7;45.1
73422;BME280;61637;47.760;-122.022;2022-07-23T04:04:00;101930.339;;;18.6;46.0
73422;BME280;61637;47.760;-122.022;2022-07-23T04:06:00;101930.339;;;18.6;45.9
73422;BME280;61637;47.760;-122.022;2022-07-23T04:08:00;101930.339;;;18.4;46.7
73422;BME280;61637;47.760;-122.022;2022-07-23T04:10:00;101930.339;;;18.3;47.5
73422;BME280;61637;47.760;-122.022;2022-07-23T04:12:00;101930.339;;;18.3;48.7
73422;BME280;61637;47.760;-122.022;2022-07-23T04:14:00;101930.339;;;18.2;49.4
73422;BME280;61637;47.760;-122.022;2022-07-23T04:16:00;101930.339;;;18.1;49.0
73422;BME280;61637;47.760;-122.022;2022-07-23T04:18:00;101930.339;;;17.9;49.2
73422;BME280;61637;47.760;-122.022;2022-07-23T04:20:00;101930.339;;;17.8;49.5
73422;BME280;61637;47.760;-122.022;2022-07-23T04:22:00;101930.339;;;17.8;46.9
73422;BME280;61637;47.760;-122.022;2022-07-23T04:24:00;101930.339;;;17.6;46.5
73422;BME280;61637;47.760;-122.022;2022-07-23T04:26:00;101930.339;;;17.5;47.2
73422;BME280;61637;47.760;-122.022;2022-07-23T04:28:00;101930.339;;;17.4;47.1
73422;BME280;61637;47.760;-122.022;2022-07-23T04:30:00;101930.339;;;17.3;49.3
73422;BME280;61637;47.760;-122.022;2022-07-23T04:32:00;101930.339;;;17.2;48.6
73422;BME280;61637;47.760;-122.022;2022-07-23T04:34:00;101930.339;;;17.1;49.6
73422;BME280;61637;47.760;-122.022;2022-07-23T04:36:00;101930.339;;;17.1;49.3
73422;BME280;61637;47.760;-122.022;2022-07-23T04:38:00;101930.339;;;16.9;49.6
73422;BME280;61637;47.760;-122.022;2022-07-23T04:40:00;101930.339;;;16.8;48.3
73422;BME280;61637;47.760;-122.022;2022-07-23T04:42:00;101930.339;;;16.8;48.7
73422;BME280;61637;47.760;-122.022;2022-07-23T04:44:00;101930.339;;;16.6;49.0
73422;BME280;61637;47.760;-122.022;2022-07-23T04:46:00;101930.339;;;16.6;49.7
73422;BME280;61637;47.760;-122.022;2022-07-23T04:48:00;101930.339;;;16.4;49.3
73422;BME280;61637;47.760;-122.022;2022-07-23T04:50:00;101930.339;;;16.3;50.2
73422;BME280;61637;47.760;-122.022;2022-07-23T04:52:00;101930.339;;;16.3;49.5
73422;BME280;61637;47.760;-122.022;2022-07-23T04:54:00;101930.339;;;16.2;49.6
73422;BME280;61637;47.760;-122.022;2022-07-23T04:56:00;101930.339;;;16.2;49.5
73422;BME280;61637;47.760;-122.022;2022-07-23T04:58:00;101930.339;;;16.1;49.8
73422;BME280;61637;47.760;-122.022;2022-07-23T05:00:00;101930.339;;;16.0;48.8
73422;BME280;61637;47.760;-122.022;2022-07-23T05:02:00;101930.339;;;15.9;49.6
73422;BME280;61637;47.760;-122.022;2022-07-23T05:04:00;101930.339;;;15.8;49.2
73422;BME280;61637;47.760;-122.022;2022-07-23T05:06:00;101930.339;;;15.8;48.2
73422;BME280;61637;47.760;-122.022;2022-07-23T05:08:00;101930.339;;;15.7;48.6
73422;BME280;61637;47.760;-122.022;2022-07-23T05:10:00;101930.339;;;15.7;48.8
73422;BME280;61637;47.760;-122.022;2022-07-23T05:12:00;101930.339;;;15.6;48.0
73422;BME280;61637;47.760;-122.022;2022-07-23T05:14:00;101930.339;;;15.6;47.5
73422;BME280;61637;47.760;-122.022;2022-07-23T05:16:00;101930.339;;;15.5;46.0
73422;BME280;61637;47.760;-122.022;2022-07-23T05:18:00;101930.339;;;15.4;46.6
73422;BME280;61637;47.760;-122.022;2022-07-23T05:20:00;101930.339;;;15.4;47.1
73422;BME280;61637;47.760;-122.022;2022-07-23T05:22:00;101930.339;;;15.3;47.5
73422;BME280;61637;47.760;-122.022;2022-07-23T05:24:01;101930.339;;;15.2;47.6
73422;BME280;61637;47.760;-122.022;2022-07-23T05:26:00;101930.339;;;15.2;46.7
73422;BME280;61637;47.760;-122.022;2022-07-23T05:28:00;101930.339;;;15.1;46.9
73422;BME280;61637;47.760;-122.022;2022-07-23T05:30:00;101930.339;;;15.1;47.6
73422;BME280;61637;47.760;-122.022;2022-07-23T05:32:00;101930.339;;;15.0;48.6
73422;BME280;61637;47.760;-122.022;2022-07-23T05:34:00;101930.339;;;15.0;50.8
73422;BME280;61637;47.760;-122.022;2022-07-23T05:36:01;101930.339;;;14.9;49.2
73422;BME280;61637;47.760;-122.022;2022-07-23T05:38:01;101930.339;;;14.8;47.5
73422;BME280;61637;47.760;-122.022;2022-07-23T05:40:01;101930.339;;;14.8;48.2
73422;BME280;61637;47.760;-122.022;2022-07-23T05:42:00;101930.339;;;14.8;48.4
73422;BME280;61637;47.760;-122.022;2022-07-23T05:44:00;101930.339;;;14.7;48.4
73422;BME280;61637;47.760;-122.022;2022-07-23T05:46:00;101930.339;;;14.7;48.0
73422;BME280;61637;47.760;-122.022;2022-07-23T05:48:00;101930.339;;;14.6;48.1
73422;BME280;61637;47.760;-122.022;2022-07-23T05:50:00;101930.339;;;14.6;49.6
73422;BME280;61637;47.760;-122.022;2022-07-23T05:52:03;101930.339;;;14.5;51.5
73422;BME280;61637;47.760;-122.022;2022-07-23T05:54:00;101930.339;;;14.5;49.3
73422;BME280;61637;47.760;-122.022;2022-07-23T05:56:00;101930.339;;;14.4;48.0
73422;BME280;61637;47.760;-122.022;2022-07-23T05:58:00;101930.339;;;14.4;47.2
73422;BME280;61637;47.760;-122.022;2022-07-23T06:00:00;101930.339;;;14.4;48.1
73422;BME280;61637;47.760;-122.022;2022-07-23T06:02:01;101930.339;;;14.3;47.8
73422;BME280;61637;47.760;-122.022;2022-07-23T06:04:00;101930.339;;;14.3;47.4
73422;BME280;61637;47.760;-122.022;2022-07-23T06:06:00;101930.339;;;14.3;48.3
73422;BME280;61637;47.760;-122.022;2022-07-23T06:08:00;101930.339;;;14.2;50.2
73422;BME280;61637;47.760;-122.022;2022-07-23T06:10:00;101930.339;;;14.2;50.1
73422;BME280;61637;47.760;-122.022;2022-07-23T06:12:00;101930.339;;;14.1;48.2
73422;BME280;61637;47.760;-122.022;2022-07-23T06:14:00;101930.339;;;14.1;51.9
73422;BME280;61637;47.760;-122.022;2022-07-23T06:16:00;101930.339;;;14.1;49.6
73422;BME280;61637;47.760;-122.022;2022-07-23T06:18:00;101930.339;;;14.0;49.3
73422;BME280;61637;47.760;-122.022;2022-07-23T06:20:00;101930.339;;;14.1;48.9
73422;BME280;61637;47.760;-122.022;2022-07-23T06:22:00;101930.339;;;14.4;48.2
73422;BME280;61637;47.760;-122.022;2022-07-23T06:24:00;101930.339;;;14.8;47.0
73422;BME280;61637;47.760;-122.022;2022-07-23T06:26:00;101930.339;;;15.1;49.0
73422;BME280;61637;47.760;-122.022;2022-07-23T06:28:00;101930.339;;;15.4;50.5
73422;BME280;61637;47.760;-122.022;2022-07-23T06:30:00;101930.339;;;15.6;52.9
73422;BME280;61637;47.760;-122.022;2022-07-23T06:32:00;101930.339;;;15.8;52.4
73422;BME280;61637;47.760;-122.022;2022-07-23T06:34:00;101930.339;;;15.9;52.4
73422;BME280;61637;47.760;-122.022;2022-07-23T06:36:01;101930.339;;;15.9;50.2
73422;BME280;61637;47.760;-122.022;2022-07-23T06:38:00;101930.339;;;15.8;49.7
73422;BME280;61637;47.760;-122.022;2022-07-23T06:40:00;101930.339;;;15.6;49.5
73422;BME280;61637;47.760;-122.022;2022-07-23T06:42:00;101930.339;;;15.4;49.2
73422;BME280;61637;47.760;-122.022;2022-07-23T06:44:00;101930.339;;;15.2;49.3
73422;BME280;61637;47.760;-122.022;2022-07-23T06:46:00;101930.339;;;14.9;49.2
73422;BME280;61637;47.760;-122.022;2022-07-23T06:48:00;101930.339;;;14.8;49.7
73422;BME280;61637;47.760;-122.022;2022-07-23T06:50:00;101930.339;;;14.6;51.1
73422;BME280;61637;47.760;-122.022;2022-07-23T06:52:00;101930.339;;;14.4;49.5
73422;BME280;61637;47.760;-122.022;2022-07-23T06:54:00;101930.339;;;14.3;50.4
73422;BME280;61637;47.760;-122.022;2022-07-23T06:56:00;101930.339;;;14.2;49.6
73422;BME280;61637;47.760;-122.022;2022-07-23T06:58:00;101930.339;;;14.1;49.8
73422;BME280;61637;47.760;-122.022;2022-07-23T07:00:01;101930.339;;;13.9;49.5
73422;BME280;61637;47.760;-122.022;2022-07-23T07:02:00;101930.339;;;13.8;50.0
73422;BME280;61637;47.760;-122.022;2022-07-23T07:04:00;101930.339;;;13.8;49.9
73422;BME280;61637;47.760;-122.022;2022-07-23T07:06:00;101930.339;;;13.7;49.9
73422;BME280;61637;47.760;-122.022;2022-07-23T07:08:00;101930.339;;;13.7;50.4
73422;BME280;61637;47.760;-122.022;2022-07-23T07:10:00;101930.339;;;13.6;50.1
73422;BME280;61637;47.760;-122.022;2022-07-23T07:12:00;101930.339;;;13.6;50.6
73422;BME280;61637;47.760;-122.022;2022-07-23T07:14:01;101930.339;;;13.5;50.0
73422;BME280;61637;47.760;-122.022;2022-07-23T07:16:00;101930.339;;;13.4;52.0
73422;BME280;61637;47.760;-122.022;2022-07-23T07:18:00;101930.339;;;13.4;49.9
73422;BME280;61637;47.760;-122.022;2022-07-23T07:20:00;101930.339;;;13.4;52.2
73422;BME280;61637;47.760;-122.022;2022-07-23T07:22:00;101930.339;;;13.4;50.5
73422;BME280;61637;47.760;-122.022;2022-07-23T07:24:01;101930.339;;;13.4;50.6
73422;BME280;61637;47.760;-122.022;2022-07-23T07:26:00;101930.339;;;13.4;50.1
73422;BME280;61637;47.760;-122.022;2022-07-23T07:28:00;101930.339;;;13.3;51.1
73422;BME280;61637;47.760;-122.022;2022-07-23T07:30:00;101930.339;;;13.3;51.0
73422;BME280;61637;47.760;-122.022;2022-07-23T07:32:00;101930.339;;;13.3;50.7
73422;BME280;61637;47.760;-122.022;2022-07-23T07:34:00;101930.339;;;13.3;50.5
73422;BME280;61637;47.760;-122.022;2022-07-23T07:36:00;101930.339;;;13.2;49.4
73422;BME280;61637;47.760;-122.022;2022-07-23T07:38:00;101930.339;;;13.2;48.4
73422;BME280;61637;47.760;-122.022;2022-07-23T07:40:00;101930.339;;;13.2;48.9
73422;BME280;61637;47.760;-122.022;2022-07-23T07:42:00;101930.339;;;13.2;50.0
73422;BME280;61637;47.760;-122.022;2022-07-23T07:44:00;101930.339;;;13.1;49.4
73422;BME280;61637;47.760;-122.022;2022-07-23T07:46:00;101930.339;;;13.1;48.9
73422;BME280;61637;47.760;-122.022;2022-07-23T07:48:00;101930.339;;;13.1;49.4
73422;BME280;61637;47.760;-122.022;2022-07-23T07:50:00;101930.339;;;13.0;49.5
73422;BME280;61637;47.760;-122.022;2022-07-23T07:52:00;101930.339;;;13.0;49.8
73422;BME280;61637;47.760;-122.022;2022-07-23T07:54:00;101930.339;;;13.0;49.4
73422;BME280;61637;47.760;-122.022;2022-07-23T07:56:00;101930.339;;;12.9;49.0
73422;BME280;61637;47.760;-122.022;2022-07-23T07:58:00;101930.339;;;12.9;50.2
73422;BME280;61637;47.760;-122.022;2022-07-23T08:00:00;101930.339;;;12.9;49.9
73422;BME280;61637;47.760;-122.022;2022-07-23T08:02:00;101930.339;;;12.9;49.9
73422;BME280;61637;47.760;-122.022;2022-07-23T08:04:00;101930.339;;;12.9;50.2
73422;BME280;61637;47.760;-122.022;2022-07-23T08:06:00;101930.339;;;12.9;49.6
73422;BME280;61637;47.760;-122.022;2022-07-23T08:08:00;101930.339;;;12.9;48.9
73422;BME280;61637;47.760;-122.022;2022-07-23T08:10:00;101930.339;;;12.9;48.6
73422;BME280;61637;47.760;-122.022;2022-07-23T08:12:00;101930.339;;;12.9;49.9
73422;BME280;61637;47.760;-122.022;2022-07-23T08:14:00;101930.339;;;12.8;50.4
73422;BME280;61637;47.760;-122.022;2022-07-23T08:16:00;101930.339;;;12.8;49.5
73422;BME280;61637;47.760;-122.022;2022-07-23T08:18:00;101930.339;;;12.8;49.0
73422;BME280;61637;47.760;-122.022;2022-07-23T08:20:00;101930.339;;;12.8;48.7
73422;BME280;61637;47.760;-122.022;2022-07-23T08:22:00;101930.339;;;12.8;50.5
73422;BME280;61637;47.760;-122.022;2022-07-23T08:24:00;101930.339;;;12.8;49.3
73422;BME280;61637;47.760;-122.022;2022-07-23T08:26:00;101930.339;;;12.7;49.7
73422;BME280;61637;47.760;-122.022;2022-07-23T08:28:01;101930.339;;;12.7;49.9
73422;BME280;61637;47.760;-122.022;2022-07-23T08:30:00;101930.339;;;12.7;50.9
73422;BME280;61637;47.760;-122.022;2022-07-23T08:32:00;101930.339;;;12.7;49.6
73422;BME280;61637;47.760;-122.022;2022-07-23T08:34:00;101930.339;;;12.7;49.6
73422;BME280;61637;47.760;-122.022;2022-07-23T08:36:01;101930.339;;;12.6;48.8
73422;BME280;61637;47.760;-122.022;2022-07-23T08:38:01;101930.339;;;12.6;49.1
73422;BME280;61637;47.760;-122.022;2022-07-23T08:40:00;101930.339;;;12.6;49.1
73422;BME280;61637;47.760;-122.022;2022-07-23T08:42:00;101930.339;;;12.5;49.6
73422;BME280;61637;47.760;-122.022;2022-07-23T08:44:00;101930.339;;;12.5;49.4
73422;BME280;61637;47.760;-122.022;2022-07-23T08:46:01;101930.339;;;12.4;47.8
73422;BME280;61637;47.760;-122.022;2022-07-23T08:48:00;101930.339;;;12.4;49.2
73422;BME280;61637;47.760;-122.022;2022-07-23T08:50:01;101930.339;;;12.4;50.4
73422;BME280;61637;47.760;-122.022;2022-07-23T08:52:00;101930.339;;;12.4;50.3
73422;BME280;61637;47.760;-122.022;2022-07-23T08:54:00;101930.339;;;12.3;49.8
73422;BME280;61637;47.760;-122.022;2022-07-23T08:56:01;101930.339;;;12.3;48.1
73422;BME280;61637;47.760;-122.022;2022-07-23T08:58:00;101930.339;;;12.3;49.5
73422;BME280;61637;47.760;-122.022;2022-07-23T09:00:00;101930.339;;;12.3;49.5
73422;BME280;61637;47.760;-122.022;2022-07-23T09:02:00;101930.339;;;12.3;49.3
73422;BME280;61637;47.760;-122.022;2022-07-23T09:04:01;101930.339;;;12.2;48.8
73422;BME280;61637;47.760;-122.022;2022-07-23T09:06:01;101930.339;;;12.2;53.8
73422;BME280;61637;47.760;-122.022;2022-07-23T09:08:04;101930.339;;;12.2;50.3
73422;BME280;61637;47.760;-122.022;2022-07-23T09:10:09;101930.339;;;12.2;50.4
73422;BME280;61637;47.760;-122.022;2022-07-23T09:12:02;101930.339;;;12.2;50.4
73422;BME280;61637;47.760;-122.022;2022-07-23T09:14:00;101930.339;;;12.1;50.4
73422;BME280;61637;47.760;-122.022;2022-07-23T09:16:01;101930.339;;;12.1;49.7
73422;BME280;61637;47.760;-122.022;2022-07-23T09:18:00;101930.339;;;12.1;51.6
73422;BME280;61637;47.760;-122.022;2022-07-23T09:20:07;101930.339;;;12.1;51.5
73422;BME280;61637;47.760;-122.022;2022-07-23T09:24:01;101930.339;;;12.2;50.7
73422;BME280;61637;47.760;-122.022;2022-07-23T09:26:01;101930.339;;;12.2;50.6
73422;BME280;61637;47.760;-122.022;2022-07-23T09:28:00;101930.339;;;12.2;49.4
73422;BME280;61637;47.760;-122.022;2022-07-23T09:30:00;101930.339;;;12.2;50.6
73422;BME280;61637;47.760;-122.022;2022-07-23T09:32:01;101930.339;;;12.2;50.6
73422;BME280;61637;47.760;-122.022;2022-07-23T09:34:06;101930.339;;;12.2;50.1
73422;BME280;61637;47.760;-122.022;2022-07-23T09:36:00;101930.339;;;12.2;48.9
73422;BME280;61637;47.760;-122.022;2022-07-23T09:38:01;101930.339;;;12.3;49.9
73422;BME280;61637;47.760;-122.022;2022-07-23T09:40:03;101930.339;;;12.3;50.7
73422;BME280;61637;47.760;-122.022;2022-07-23T09:44:05;101930.339;;;12.3;49.9
73422;BME280;61637;47.760;-122.022;2022-07-23T09:50:01;101930.339;;;12.3;48.2
73422;BME280;61637;47.760;-122.022;2022-07-23T09:52:00;101930.339;;;12.4;50.1
73422;BME280;61637;47.760;-122.022;2022-07-23T09:54:00;101930.339;;;12.4;53.1
73422;BME280;61637;47.760;-122.022;2022-07-23T09:56:00;101930.339;;;12.4;50.1
73422;BME280;61637;47.760;-122.022;2022-07-23T09:58:00;101930.339;;;12.4;50.1
73422;BME280;61637;47.760;-122.022;2022-07-23T10:00:01;101930.339;;;12.4;50.3
73422;BME280;61637;47.760;-122.022;2022-07-23T10:02:00;101930.339;;;12.4;49.7
73422;BME280;61637;47.760;-122.022;2022-07-23T10:04:00;101930.339;;;12.4;49.9
73422;BME280;61637;47.760;-122.022;2022-07-23T10:06:00;101930.339;;;12.4;50.1
73422;BME280;61637;47.760;-122.022;2022-07-23T10:08:01;101930.339;;;12.5;49.8
73422;BME280;61637;47.760;-122.022;2022-07-23T10:10:01;101930.339;;;12.5;49.4
73422;BME280;61637;47.760;-122.022;2022-07-23T10:12:01;101930.339;;;12.5;49.1
73422;BME280;61637;47.760;-122.022;2022-07-23T10:14:00;101930.339;;;12.5;49.8
73422;BME280;61637;47.760;-122.022;2022-07-23T10:16:00;101930.339;;;12.6;49.2
73422;BME280;61637;47.760;-122.022;2022-07-23T10:18:00;101930.339;;;12.6;49.3
73422;BME280;61637;47.760;-122.022;2022-07-23T10:20:00;101930.339;;;12.6;49.4